Nye, Montana
Current Conditions -  °F | °C
As of 11:46 PM on Tuesday 25 Nov 2014 (Local Time) from KLVM Reporting Station
Light Snow Light Snow  
Wind Chill: 20°   Ceiling: 1000
Heat Index: 27°   Visibility: 0.75mi
Dew Point: 24°   Wind: 6mph
Humidity: 89%   Direction: 70°ENE
Pressure: 30.14"   Gusts: NA
Location:  45.45°N, 109.81°W
Report Text: KLVM 260646Z AUTO 07005KT 3/4SM -SN BR OVC010 M03/M04 A3014 RMK AO2 P0003 T10281044
Loading
Personal Weather Stations






























Interactive Weather Map New forecast layout! Learn more

10-Day Weather Forecast

Advertisements
Track Severe Weather on mobile